createdAt,value
2018-10-05T00:02:07.328Z,8.70
2018-10-05T00:04:34.567Z,8.70
2018-10-05T00:07:01.874Z,8.80
2018-10-05T00:09:29.098Z,8.80
2018-10-05T00:11:56.344Z,8.70
2018-10-05T00:14:23.815Z,8.60
2018-10-05T00:16:51.077Z,8.90
2018-10-05T00:19:18.330Z,9.70
2018-10-05T00:21:45.558Z,8.80
2018-10-05T00:24:12.803Z,8.30
2018-10-05T00:26:40.044Z,8.40
2018-10-05T00:29:07.304Z,8.30
2018-10-05T00:31:34.519Z,8.20
2018-10-05T00:34:01.790Z,8.10
2018-10-05T00:36:29.043Z,7.70
2018-10-05T00:38:56.309Z,8.00
2018-10-05T00:41:23.589Z,7.80
2018-10-05T00:43:50.849Z,7.70
2018-10-05T00:46:18.064Z,7.90
2018-10-05T00:48:45.294Z,7.90
2018-10-05T00:51:12.537Z,7.90
2018-10-05T00:53:39.788Z,7.80
2018-10-05T00:56:07.085Z,7.80
2018-10-05T00:58:34.340Z,7.80
2018-10-05T01:01:01.607Z,7.80
2018-10-05T01:03:28.903Z,7.70
2018-10-05T01:05:56.132Z,7.80
2018-10-05T01:08:23.383Z,8.00
2018-10-05T01:10:50.656Z,8.10
2018-10-05T01:13:17.879Z,7.60
2018-10-05T01:15:45.103Z,7.60
2018-10-05T01:18:12.377Z,7.50
2018-10-05T01:20:39.628Z,7.50
2018-10-05T01:23:06.867Z,7.50
2018-10-05T01:25:34.123Z,7.40
2018-10-05T01:28:01.375Z,8.20
2018-10-05T01:30:28.612Z,7.40
2018-10-05T01:32:55.863Z,7.30
2018-10-05T01:35:23.126Z,7.30
2018-10-05T01:37:50.396Z,7.30
2018-10-05T01:40:17.635Z,7.50
2018-10-05T01:42:44.844Z,7.80
2018-10-05T01:45:12.080Z,7.40
2018-10-05T01:47:39.328Z,7.10
2018-10-05T01:50:06.611Z,9.10
2018-10-05T01:52:33.877Z,6.80
2018-10-05T01:55:01.104Z,6.90
2018-10-05T01:57:28.393Z,6.80
2018-10-05T01:59:55.643Z,6.90
2018-10-05T02:02:22.893Z,6.90
2018-10-05T02:04:50.118Z,6.80
2018-10-05T02:07:17.350Z,7.10
2018-10-05T02:09:44.651Z,6.60
2018-10-05T02:12:11.888Z,7.10
2018-10-05T02:14:39.136Z,6.80
2018-10-05T02:17:06.375Z,6.50
2018-10-05T02:19:33.601Z,6.80
2018-10-05T02:22:00.888Z,6.80
2018-10-05T02:24:28.108Z,6.80
2018-10-05T02:26:55.335Z,7.60
2018-10-05T02:29:22.570Z,6.70
2018-10-05T02:31:49.769Z,7.00
2018-10-05T02:34:16.979Z,7.00
2018-10-05T02:36:44.240Z,6.50
2018-10-05T02:39:12.389Z,6.50
2018-10-05T02:41:39.695Z,6.40
2018-10-05T02:44:06.908Z,6.40
2018-10-05T02:46:34.144Z,6.50
2018-10-05T02:49:01.430Z,6.40
2018-10-05T02:51:28.700Z,6.40
2018-10-05T02:53:55.953Z,6.40
2018-10-05T02:56:23.227Z,6.40
2018-10-05T02:58:50.455Z,6.30
2018-10-05T03:01:29.133Z,6.60
2018-10-05T03:03:56.367Z,6.20
2018-10-05T03:06:24.605Z,6.20
2018-10-05T03:08:51.852Z,6.50
2018-10-05T03:11:19.104Z,6.40
2018-10-05T03:13:46.364Z,6.50
2018-10-05T03:16:13.590Z,6.60
2018-10-05T03:18:40.794Z,6.70
2018-10-05T03:21:08.043Z,7.20
2018-10-05T03:23:35.329Z,6.80
2018-10-05T03:26:02.577Z,6.90
2018-10-05T03:28:29.852Z,7.20
2018-10-05T03:30:57.104Z,7.10
2018-10-05T03:33:24.356Z,7.00
2018-10-05T03:35:51.590Z,7.00
2018-10-05T03:38:18.805Z,7.00
2018-10-05T03:40:46.038Z,7.00
2018-10-05T03:43:13.280Z,7.00
2018-10-05T03:45:40.524Z,6.90
2018-10-05T03:48:07.819Z,6.80
2018-10-05T03:50:35.075Z,6.70
2018-10-05T03:53:02.632Z,6.70
2018-10-05T03:55:29.856Z,6.70
2018-10-05T03:57:57.083Z,6.70
2018-10-05T04:00:24.296Z,6.70
2018-10-05T04:02:51.544Z,7.30
2018-10-05T04:05:18.772Z,6.90
2018-10-05T04:07:46.047Z,6.60
2018-10-05T04:10:13.259Z,6.70
2018-10-05T04:12:41.541Z,7.00
2018-10-05T04:15:08.848Z,6.70
2018-10-05T04:17:36.067Z,7.90
2018-10-05T04:20:03.346Z,6.90
2018-10-05T04:22:31.161Z,7.10
2018-10-05T04:24:58.465Z,7.00
2018-10-05T04:27:26.699Z,7.00
2018-10-05T04:29:54.551Z,7.20
2018-10-05T04:32:21.788Z,6.90
2018-10-05T04:34:49.003Z,6.90
2018-10-05T04:37:16.223Z,6.80
2018-10-05T04:39:43.633Z,6.90
2018-10-05T04:42:11.191Z,7.00
2018-10-05T04:44:38.449Z,7.00
2018-10-05T04:47:05.715Z,6.70
2018-10-05T04:49:33.100Z,7.00
2018-10-05T04:52:00.678Z,7.20
2018-10-05T04:54:27.891Z,6.80
2018-10-05T04:56:55.186Z,7.00
2018-10-05T04:59:22.382Z,6.70
2018-10-05T05:01:49.632Z,6.60
2018-10-05T05:04:16.874Z,6.80
2018-10-05T05:06:44.113Z,6.70
2018-10-05T05:09:11.352Z,6.60
2018-10-05T05:11:38.607Z,6.50
2018-10-05T05:14:05.883Z,6.50
2018-10-05T05:16:33.144Z,6.40
2018-10-05T05:19:00.386Z,7.40
2018-10-05T05:21:27.630Z,6.60
2018-10-05T05:23:55.355Z,6.60
2018-10-05T05:26:22.592Z,6.90
2018-10-05T05:28:50.151Z,6.70
2018-10-05T05:31:17.382Z,6.80
2018-10-05T05:33:44.642Z,7.00
2018-10-05T05:36:11.899Z,6.70
2018-10-05T05:38:39.133Z,6.80
2018-10-05T05:41:06.395Z,6.70
2018-10-05T05:43:33.632Z,6.70
2018-10-05T05:46:00.840Z,6.70
2018-10-05T05:48:28.210Z,7.10
2018-10-05T05:50:55.428Z,6.70
2018-10-05T05:53:22.648Z,6.80
2018-10-05T05:55:49.868Z,6.70
2018-10-05T05:58:17.099Z,6.70
2018-10-05T06:00:44.343Z,6.80
2018-10-05T06:03:11.611Z,7.60
2018-10-05T06:05:38.869Z,7.70
2018-10-05T06:08:06.099Z,7.00
2018-10-05T06:10:33.323Z,7.00
2018-10-05T06:13:00.582Z,7.40
2018-10-05T06:15:27.823Z,7.30
2018-10-05T06:17:55.047Z,8.10
2018-10-05T06:20:22.280Z,7.30
2018-10-05T06:22:49.507Z,7.50
2018-10-05T06:25:16.780Z,7.80
2018-10-05T06:27:44.003Z,7.60
2018-10-05T06:30:11.260Z,7.80
2018-10-05T06:32:38.496Z,7.90
2018-10-05T06:35:05.743Z,8.00
2018-10-05T06:37:32.975Z,8.50
2018-10-05T06:40:00.168Z,8.30
2018-10-05T06:42:28.112Z,8.40
2018-10-05T06:44:55.316Z,8.60
2018-10-05T06:47:22.584Z,8.80
2018-10-05T06:49:49.799Z,8.90
2018-10-05T06:52:17.031Z,9.10
2018-10-05T06:54:44.279Z,9.50
2018-10-05T06:57:11.554Z,9.60
2018-10-05T06:59:38.914Z,9.60
2018-10-05T07:02:06.163Z,9.70
2018-10-05T07:04:33.378Z,9.90
2018-10-05T07:07:00.611Z,10.10
2018-10-05T07:09:27.867Z,10.30
2018-10-05T07:11:55.127Z,10.20
2018-10-05T07:14:22.365Z,10.10
2018-10-05T07:16:49.598Z,10.00
2018-10-05T07:19:16.862Z,9.80
2018-10-05T07:21:44.084Z,9.60
2018-10-05T07:24:11.635Z,9.70
2018-10-05T07:26:38.975Z,9.80
2018-10-05T07:29:06.254Z,9.80
2018-10-05T07:31:33.476Z,10.20
2018-10-05T07:34:00.723Z,10.20
2018-10-05T07:36:27.947Z,10.30
2018-10-05T07:38:55.174Z,10.70
2018-10-05T07:41:22.438Z,10.70
2018-10-05T07:43:49.675Z,11.10
2018-10-05T07:46:16.937Z,11.40
2018-10-05T07:48:44.163Z,11.50
2018-10-05T07:51:11.387Z,11.90
2018-10-05T07:53:38.652Z,11.90
2018-10-05T07:56:06.270Z,12.10
2018-10-05T07:58:33.539Z,12.20
2018-10-05T08:01:00.774Z,12.30
2018-10-05T08:03:28.011Z,12.40
2018-10-05T08:05:55.261Z,12.70
2018-10-05T08:08:22.480Z,12.90
2018-10-05T08:10:49.767Z,13.20
2018-10-05T08:13:16.986Z,13.40
2018-10-05T08:15:44.732Z,13.50
2018-10-05T08:18:11.971Z,13.70
2018-10-05T08:20:39.199Z,13.70
2018-10-05T08:23:06.494Z,13.80
2018-10-05T08:25:33.735Z,13.90
2018-10-05T08:28:01.056Z,14.20
2018-10-05T08:30:28.227Z,14.50
2018-10-05T08:32:55.439Z,14.60
2018-10-05T08:35:22.664Z,14.90
2018-10-05T08:37:49.866Z,15.10
2018-10-05T08:40:17.101Z,15.20
2018-10-05T08:42:44.286Z,15.30
2018-10-05T08:45:11.611Z,15.40
2018-10-05T08:47:38.847Z,15.70
2018-10-05T08:50:06.105Z,15.90
2018-10-05T08:52:33.413Z,16.10
2018-10-05T08:55:00.762Z,16.30
2018-10-05T08:57:27.999Z,16.30
2018-10-05T08:59:55.268Z,16.50
2018-10-05T09:02:22.594Z,16.80
2018-10-05T09:04:50.470Z,17.10
2018-10-05T09:07:17.725Z,17.30
2018-10-05T09:09:44.968Z,17.50
2018-10-05T09:12:12.193Z,17.70
2018-10-05T09:14:39.496Z,17.80
2018-10-05T09:17:07.582Z,17.90
2018-10-05T09:19:35.259Z,17.40
2018-10-05T09:22:02.480Z,17.90
2018-10-05T09:24:30.482Z,18.00
2018-10-05T09:26:57.719Z,17.90
2018-10-05T09:29:24.952Z,18.40
2018-10-05T09:31:52.186Z,18.80
2018-10-05T09:34:19.452Z,18.90
2018-10-05T09:36:46.691Z,18.80
2018-10-05T09:39:13.922Z,18.90
2018-10-05T09:41:41.192Z,19.20
2018-10-05T09:44:08.418Z,19.30
2018-10-05T09:46:35.651Z,19.20
2018-10-05T09:49:02.904Z,19.30
2018-10-05T09:51:30.159Z,19.60
2018-10-05T09:53:57.400Z,19.70
2018-10-05T09:56:24.648Z,20.00
2018-10-05T09:58:51.908Z,19.80
2018-10-05T10:01:25.996Z,19.80
2018-10-05T10:03:53.219Z,19.50
2018-10-05T10:06:20.444Z,19.40
2018-10-05T10:08:47.697Z,19.50
2018-10-05T10:11:14.935Z,19.70
2018-10-05T10:13:42.251Z,20.10
2018-10-05T10:16:09.510Z,20.30
2018-10-05T10:18:36.856Z,20.50
2018-10-05T10:21:04.134Z,20.40
2018-10-05T10:23:31.376Z,20.40
2018-10-05T10:25:58.627Z,20.60
2018-10-05T10:28:25.947Z,20.90
2018-10-05T10:30:53.115Z,21.20
2018-10-05T10:33:20.420Z,21.30
2018-10-05T10:35:47.913Z,21.30
2018-10-05T10:38:15.119Z,21.10
2018-10-05T10:40:42.338Z,21.20
2018-10-05T10:43:09.551Z,21.40
2018-10-05T10:45:36.803Z,21.30
2018-10-05T10:48:04.037Z,21.40
2018-10-05T10:50:31.239Z,21.50
2018-10-05T10:52:58.469Z,21.70
2018-10-05T10:55:25.656Z,21.90
2018-10-05T10:57:52.879Z,21.90
2018-10-05T11:00:20.116Z,22.10
2018-10-05T11:02:47.383Z,22.00
2018-10-05T11:05:15.488Z,22.10
2018-10-05T11:07:42.698Z,21.70
2018-10-05T11:10:09.923Z,21.60
2018-10-05T11:12:37.123Z,21.30
2018-10-05T11:15:04.384Z,21.80
2018-10-05T11:17:31.591Z,22.00
2018-10-05T11:19:58.821Z,22.20
2018-10-05T11:22:26.036Z,22.40
2018-10-05T11:24:53.261Z,22.60
2018-10-05T11:27:20.458Z,22.50
2018-10-05T11:29:49.194Z,22.20
2018-10-05T11:32:16.379Z,22.30
2018-10-05T11:34:43.619Z,22.30
2018-10-05T11:37:11.888Z,22.10
2018-10-05T11:39:39.122Z,22.00
2018-10-05T11:42:06.397Z,21.90
2018-10-05T11:44:33.611Z,22.10
2018-10-05T11:47:00.859Z,22.30
2018-10-05T11:49:28.091Z,22.30
2018-10-05T11:51:55.321Z,22.50
2018-10-05T11:54:22.536Z,22.50
2018-10-05T11:56:49.752Z,22.50
2018-10-05T11:59:17.160Z,22.70
2018-10-05T12:01:44.372Z,22.80
2018-10-05T12:04:11.591Z,22.90
2018-10-05T12:06:38.815Z,23.20
2018-10-05T12:09:07.075Z,23.20
2018-10-05T12:11:34.372Z,23.30
2018-10-05T12:14:01.654Z,23.40
2018-10-05T12:16:28.880Z,23.50
2018-10-05T12:18:56.112Z,23.60
2018-10-05T12:21:23.338Z,23.70
2018-10-05T12:23:51.074Z,23.70
2018-10-05T12:26:18.305Z,23.60
2018-10-05T12:28:46.060Z,24.20
2018-10-05T12:31:13.295Z,24.80
2018-10-05T12:33:40.543Z,25.40
2018-10-05T12:36:07.791Z,26.30
2018-10-05T12:38:35.013Z,27.40
2018-10-05T12:41:02.258Z,28.20
2018-10-05T12:43:29.515Z,28.80
2018-10-05T12:45:56.716Z,29.40
2018-10-05T12:48:23.940Z,29.70
2018-10-05T12:50:51.168Z,30.00
2018-10-05T12:53:18.391Z,30.40
2018-10-05T12:55:46.670Z,30.60
2018-10-05T12:58:13.924Z,31.00
2018-10-05T13:00:41.145Z,31.00
2018-10-05T13:03:08.351Z,31.10
2018-10-05T13:05:35.571Z,31.20
2018-10-05T13:08:02.791Z,30.90
2018-10-05T13:10:30.011Z,31.20
2018-10-05T13:12:57.274Z,31.40
2018-10-05T13:15:24.527Z,31.70
2018-10-05T13:17:51.779Z,32.20
2018-10-05T13:20:19.012Z,32.10
2018-10-05T13:22:46.227Z,31.80
2018-10-05T13:25:13.440Z,31.90
2018-10-05T13:27:40.646Z,32.10
2018-10-05T13:30:08.407Z,32.00
2018-10-05T13:32:35.635Z,31.50
2018-10-05T13:35:02.929Z,31.50
2018-10-05T13:37:30.294Z,31.80
2018-10-05T13:39:57.429Z,32.00
2018-10-05T13:42:25.675Z,31.80
2018-10-05T13:44:52.895Z,31.80
2018-10-05T13:47:20.144Z,31.60
2018-10-05T13:49:47.362Z,32.00
2018-10-05T13:52:14.585Z,32.20
2018-10-05T13:54:41.790Z,32.40
2018-10-05T13:57:08.998Z,32.80
2018-10-05T13:59:36.219Z,32.90
2018-10-05T14:02:04.175Z,33.20
2018-10-05T14:04:31.405Z,33.20
2018-10-05T14:06:59.004Z,33.60
2018-10-05T14:09:26.155Z,33.60
2018-10-05T14:11:54.465Z,33.70
2018-10-05T14:14:21.683Z,33.60
2018-10-05T14:16:48.924Z,33.30
2018-10-05T14:19:16.181Z,33.50
2018-10-05T14:21:43.436Z,33.20
2018-10-05T14:24:10.608Z,32.90
2018-10-05T14:26:37.840Z,33.00
2018-10-05T14:29:06.115Z,33.10
2018-10-05T14:31:33.345Z,33.40
2018-10-05T14:34:00.592Z,33.30
2018-10-05T14:36:27.825Z,33.20
2018-10-05T14:38:55.067Z,33.30
2018-10-05T14:41:22.291Z,33.50
2018-10-05T14:43:49.491Z,33.40
2018-10-05T14:46:16.827Z,33.20
2018-10-05T14:48:44.074Z,33.30
2018-10-05T14:51:11.313Z,33.60
2018-10-05T14:53:38.619Z,33.50
2018-10-05T14:56:05.856Z,33.60
2018-10-05T14:58:33.081Z,33.70
2018-10-05T15:01:01.323Z,33.10
2018-10-05T15:03:28.547Z,32.80
2018-10-05T15:05:55.838Z,32.90
2018-10-05T15:08:23.064Z,33.00
2018-10-05T15:10:50.295Z,32.70
2018-10-05T15:13:17.523Z,32.70
2018-10-05T15:15:44.760Z,32.40
2018-10-05T15:18:11.972Z,32.50
2018-10-05T15:20:39.187Z,32.50
2018-10-05T15:23:07.411Z,32.40
2018-10-05T15:25:34.628Z,32.70
2018-10-05T15:28:01.835Z,32.70
2018-10-05T15:30:29.030Z,32.70
2018-10-05T15:32:56.388Z,32.20
2018-10-05T15:35:23.527Z,32.10
2018-10-05T15:37:51.752Z,32.30
2018-10-05T15:40:19.002Z,32.00
2018-10-05T15:42:46.218Z,31.80
2018-10-05T15:45:13.476Z,31.90
2018-10-05T15:47:41.708Z,31.80
2018-10-05T15:50:08.923Z,31.40
2018-10-05T15:52:36.151Z,31.20
2018-10-05T15:55:03.489Z,31.00
2018-10-05T15:57:30.703Z,31.10
2018-10-05T15:59:58.935Z,31.30
2018-10-05T16:02:26.143Z,31.30
2018-10-05T16:04:53.359Z,31.10
2018-10-05T16:07:20.589Z,30.90
2018-10-05T16:09:47.816Z,30.20
2018-10-05T16:12:15.059Z,29.10
2018-10-05T16:14:42.247Z,27.80
2018-10-05T16:17:09.468Z,26.50
2018-10-05T16:19:36.692Z,25.20
2018-10-05T16:22:03.990Z,24.60
2018-10-05T16:24:35.251Z,24.20
2018-10-05T16:27:02.480Z,23.70
2018-10-05T16:29:29.685Z,23.00
2018-10-05T16:31:56.942Z,22.40
2018-10-05T16:34:24.130Z,21.80
2018-10-05T16:36:51.654Z,21.40
2018-10-05T16:39:18.857Z,20.80
2018-10-05T16:41:46.083Z,20.40
2018-10-05T16:44:14.346Z,20.00
2018-10-05T16:46:41.580Z,19.50
2018-10-05T16:49:10.645Z,18.60
2018-10-05T16:51:38.334Z,17.80
2018-10-05T16:54:05.684Z,17.30
2018-10-05T16:56:32.903Z,16.90
2018-10-05T16:59:00.262Z,16.60
2018-10-05T17:01:27.479Z,16.60
2018-10-05T17:03:54.780Z,16.60
2018-10-05T17:06:21.952Z,16.60
2018-10-05T17:08:51.254Z,16.70
2018-10-05T17:11:19.167Z,16.70
2018-10-05T17:13:46.377Z,16.50
2018-10-05T17:16:14.590Z,16.60
2018-10-05T17:18:41.787Z,16.50
2018-10-05T17:21:09.060Z,16.40
2018-10-05T17:23:36.303Z,16.40
2018-10-05T17:26:03.633Z,16.10
2018-10-05T17:28:30.898Z,15.70
2018-10-05T17:30:58.130Z,15.30
2018-10-05T17:33:25.432Z,15.10
2018-10-05T17:35:52.676Z,14.90
2018-10-05T17:38:19.923Z,14.80
2018-10-05T17:40:47.167Z,14.70
2018-10-05T17:43:14.436Z,14.70
2018-10-05T17:45:41.801Z,14.60
2018-10-05T17:48:09.035Z,14.50
2018-10-05T17:50:36.379Z,14.20
2018-10-05T17:53:03.743Z,14.00
2018-10-05T17:55:31.184Z,13.90
2018-10-05T17:57:58.363Z,13.90
2018-10-05T18:00:26.380Z,14.00
2018-10-05T18:02:53.691Z,13.90
2018-10-05T18:05:21.260Z,13.80
2018-10-05T18:07:48.547Z,13.80
2018-10-05T18:10:15.820Z,13.60
2018-10-05T18:12:43.124Z,13.40
2018-10-05T18:15:10.577Z,13.50
2018-10-05T18:17:37.940Z,13.50
2018-10-05T18:20:05.407Z,13.60
2018-10-05T18:22:32.685Z,13.60
2018-10-05T18:24:59.950Z,13.60
2018-10-05T18:27:27.261Z,13.50
2018-10-05T18:29:54.635Z,13.30
2018-10-05T18:32:21.979Z,12.00
2018-10-05T18:34:49.295Z,13.30
2018-10-05T18:37:16.614Z,13.20
2018-10-05T18:39:43.910Z,13.30
2018-10-05T18:42:12.019Z,13.30
2018-10-05T18:44:39.259Z,13.30
2018-10-05T18:47:06.708Z,13.10
2018-10-05T18:49:33.983Z,13.10
2018-10-05T18:52:01.259Z,13.00
2018-10-05T18:54:28.582Z,13.00
2018-10-05T18:57:07.507Z,12.90
2018-10-05T18:59:34.809Z,12.80
2018-10-05T19:02:02.074Z,12.70
2018-10-05T19:04:29.320Z,12.70
2018-10-05T19:06:56.605Z,12.80
2018-10-05T19:09:23.843Z,12.70
2018-10-05T19:11:51.143Z,12.60
2018-10-05T19:14:18.371Z,12.70
2018-10-05T19:16:45.614Z,12.70
2018-10-05T19:19:12.890Z,12.90
2018-10-05T19:21:40.159Z,12.90
2018-10-05T19:24:07.397Z,13.00
2018-10-05T19:26:34.855Z,13.00
2018-10-05T19:29:02.219Z,12.90
2018-10-05T19:31:29.444Z,12.90
2018-10-05T19:33:56.731Z,12.80
2018-10-05T19:36:23.973Z,12.80
2018-10-05T19:38:51.213Z,12.80
2018-10-05T19:41:18.452Z,12.90
2018-10-05T19:43:49.261Z,12.80
2018-10-05T19:46:21.522Z,12.90
2018-10-05T19:48:49.826Z,12.60
2018-10-05T19:51:18.694Z,12.60
2018-10-05T19:53:47.619Z,12.60
2018-10-05T19:56:16.531Z,12.60
2018-10-05T19:58:45.045Z,12.60
2018-10-05T20:01:14.180Z,12.60
2018-10-05T20:03:42.784Z,12.60
2018-10-05T20:06:11.132Z,12.50
2018-10-05T20:08:39.665Z,12.30
2018-10-05T20:11:08.422Z,12.00
2018-10-05T20:13:35.764Z,12.10
2018-10-05T20:16:03.048Z,12.10
2018-10-05T20:18:30.339Z,12.10
2018-10-05T20:20:57.562Z,12.10
2018-10-05T20:23:25.911Z,12.10
2018-10-05T20:25:53.246Z,12.10
2018-10-05T20:28:20.470Z,12.10
2018-10-05T20:30:47.735Z,12.10
2018-10-05T20:33:15.006Z,12.10
2018-10-05T20:35:42.263Z,12.00
2018-10-05T20:38:09.670Z,12.10
2018-10-05T20:40:36.899Z,12.10
2018-10-05T20:43:04.131Z,12.20
2018-10-05T20:45:31.399Z,12.20
2018-10-05T20:47:58.780Z,12.30
2018-10-05T20:50:26.024Z,12.30
2018-10-05T20:52:53.675Z,12.30
2018-10-05T20:55:21.539Z,12.30
2018-10-05T20:57:48.788Z,12.20
2018-10-05T21:00:16.026Z,12.10
2018-10-05T21:02:43.271Z,12.10
2018-10-05T21:05:10.511Z,12.00
2018-10-05T21:07:37.762Z,11.90
2018-10-05T21:10:05.007Z,11.80
2018-10-05T21:12:32.213Z,11.70
2018-10-05T21:14:59.492Z,11.70
2018-10-05T21:17:26.739Z,11.60
2018-10-05T21:19:53.984Z,11.60
2018-10-05T21:22:21.260Z,11.60
2018-10-05T21:24:48.508Z,11.50
2018-10-05T21:27:15.720Z,11.50
2018-10-05T21:29:43.023Z,11.50
2018-10-05T21:32:10.275Z,11.40
2018-10-05T21:34:37.523Z,11.60
2018-10-05T21:37:04.767Z,11.40
2018-10-05T21:39:31.983Z,11.40
2018-10-05T21:41:59.206Z,11.30
2018-10-05T21:44:26.440Z,11.60
2018-10-05T21:46:53.678Z,11.30
2018-10-05T21:49:20.902Z,11.20
2018-10-05T21:51:48.131Z,11.50
2018-10-05T21:54:15.367Z,11.20
2018-10-05T21:56:42.573Z,11.30
2018-10-05T21:59:09.760Z,11.40
2018-10-05T22:01:37.000Z,11.50
2018-10-05T22:04:04.244Z,11.60
2018-10-05T22:06:31.504Z,11.60
2018-10-05T22:08:58.773Z,11.60
2018-10-05T22:11:26.014Z,11.70
2018-10-05T22:13:53.265Z,11.70
2018-10-05T22:16:20.480Z,11.70
2018-10-05T22:18:47.735Z,11.80
2018-10-05T22:21:14.964Z,11.60
2018-10-05T22:23:42.203Z,11.80
2018-10-05T22:26:09.459Z,11.80
2018-10-05T22:28:36.673Z,11.80
2018-10-05T22:31:03.934Z,11.70
2018-10-05T22:33:31.228Z,11.50
2018-10-05T22:35:58.512Z,11.40
2018-10-05T22:38:25.838Z,11.40
2018-10-05T22:40:53.119Z,11.40
2018-10-05T22:43:20.347Z,11.40
2018-10-05T22:45:47.602Z,11.30
2018-10-05T22:48:14.824Z,11.20
2018-10-05T22:50:42.083Z,11.20
2018-10-05T22:53:09.367Z,11.10
2018-10-05T22:55:36.634Z,11.20
2018-10-05T22:58:03.870Z,11.60
2018-10-05T23:00:31.192Z,11.10
2018-10-05T23:02:58.436Z,11.10
2018-10-05T23:05:25.683Z,11.10
2018-10-05T23:07:52.895Z,11.20
2018-10-05T23:10:20.160Z,11.20
2018-10-05T23:12:47.435Z,11.10
2018-10-05T23:15:14.663Z,11.20
2018-10-05T23:17:41.895Z,11.30
2018-10-05T23:20:09.139Z,11.20
2018-10-05T23:22:36.466Z,12.10
2018-10-05T23:25:03.919Z,11.30
2018-10-05T23:27:31.159Z,11.30
2018-10-05T23:29:58.424Z,11.30
2018-10-05T23:32:25.695Z,11.30
2018-10-05T23:34:52.927Z,12.90
2018-10-05T23:37:20.157Z,11.50
2018-10-05T23:39:47.395Z,11.30
2018-10-05T23:42:14.647Z,11.40
2018-10-05T23:44:41.886Z,11.30
2018-10-05T23:47:09.115Z,11.40
2018-10-05T23:49:36.360Z,11.70
2018-10-05T23:52:13.847Z,11.50
2018-10-05T23:54:41.101Z,11.40
2018-10-05T23:57:08.343Z,11.60
2018-10-05T23:59:35.580Z,11.70
